Accueil
METAR-TAF:

METAR-TAF

Aéroports :

Aéroport de Vérone

Vérone, Italie

latitude: 45-23N, longitude: 010-52E, altitude: 67 m

Observation

Le bulletin a été fait il y a 21 minutes, à 17:50 UTC
Vent 3 kt de sud-est
Température 23°C
Humidité 57%
Pression 1010 hPa
Visibilité 10 km ou plus
Quelques nuages à une hauteur de 4000 ft

METAR: LIPX 191750Z 14003KT 9999 FEW040 23/14 Q1010

Heure: 20:11 (18:11 UTC)

Prévision

Le bulletin a été fait il y a 1 heure et 11 minutes, à 17:00 UTC
Prévision valable du 19 à 18 UTC au 20 à 18 UTC
Vent 5 kt de direction variable
Visibilité 10 km ou plus
Quelques nuages à une hauteur de 3000 ft
Evoluant progressivement
du 20 à 10 UTC au 20 à 12 UTC
Vent 12 kt de est
Temporairement
du 20 à 15 UTC au 20 à 18 UTC
orage, pluie,

TAF: LIPX 191700Z 1918/2018 VRB05KT 9999 FEW030 BECMG 2010/2012 08012KT TEMPO 2015/2018 TSRA

Observations et prévisions météorologiques de plus de 4000 aéroports (messages METAR et TAF).

Les stations disponibles sont représentées par des disques jaunes et rouges sur la carte.

Passer la souris dessus pour voir le nom de la station.

Cliquer dessus pour voir les observations et prévisions météorologiques.

Pour changer de carte: cliquez sur les boutons verts avec une croix noire pour zoomer, sur le bouton vert avec un tiret pour effectuer un zoom arrière, ou sur les flèches vertes pour les cartes adjacentes.


METAR-TAF: